Time;durP1;ratioP1;P1;durP2;ratioP2;P2;SDS_P1;SDS_P2;PMS_P1;PMS_P2;Temp;Humidity;BMP_temperature;BMP_pressure;BME280_temperature;BME280_humidity;BME280_pressure;Samples;Min_cycle;Max_cycle;Signal;HPM_P1;HPM_P2
2023/12/27 00:00:29;;;;;;;;;;;12.40;91.10;;;;;;5017621;28;19915;-81
2023/12/27 00:02:57;;;;;;;;;;;12.40;91.10;;;;;;5017496;28;19909;-80
2023/12/27 00:05:23;;;;;;;;;;;12.40;91.10;;;;;;5017580;28;19932;-80
2023/12/27 00:07:48;;;;;;;;;;;12.30;91.00;;;;;;5017048;28;19913;-81
2023/12/27 00:10:14;;;;;;;;;;;12.40;91.10;;;;;;5035106;28;19909;-81
2023/12/27 00:12:39;;;;;;;;;;;12.40;91.00;;;;;;5017239;28;19913;-81
2023/12/27 00:15:05;;;;;;;;;;;12.40;91.00;;;;;;5017395;28;19967;-80
2023/12/27 00:17:30;;;;;;;;;;;12.40;91.00;;;;;;5026069;28;20012;-81
2023/12/27 00:19:55;;;;;;;;;;;12.40;91.00;;;;;;5016790;28;19963;-80
2023/12/27 00:22:21;;;;;;;;;;;12.30;91.00;;;;;;5017008;28;20004;-80
2023/12/27 00:24:46;;;;;;;;;;;12.40;91.10;;;;;;5016893;28;20481;-81
2023/12/27 00:27:12;;;;;;;;;;;12.30;91.00;;;;;;5016923;28;19909;-81
2023/12/27 00:29:37;;;;;;;;;;;12.30;91.00;;;;;;5016975;28;20373;-80
2023/12/27 00:32:08;;;;;;;;;;;12.40;91.10;;;;;;5017020;28;20007;-81
2023/12/27 00:34:34;;;;;;;;;;;12.40;91.00;;;;;;5015857;28;19913;-81
2023/12/27 00:36:59;;;;;;;;;;;12.40;91.00;;;;;;5016538;28;19963;-80
2023/12/27 00:39:25;;;;;;;;;;;12.30;91.00;;;;;;5016697;28;19924;-81
2023/12/27 00:41:50;;;;;;;;;;;12.40;91.10;;;;;;5016864;28;19917;-81
2023/12/27 00:44:16;;;;;;;;;;;12.30;91.00;;;;;;5016797;28;19956;-81
2023/12/27 00:46:41;;;;;;;;;;;12.30;91.00;;;;;;5016636;28;20308;-81
2023/12/27 00:49:07;;;;;;;;;;;12.30;91.00;;;;;;5016584;28;19909;-81
2023/12/27 00:51:32;;;;;;;;;;;12.30;91.00;;;;;;5016403;28;19917;-81
2023/12/27 00:53:58;;;;;;;;;;;12.30;91.00;;;;;;5016862;28;19909;-81
2023/12/27 00:56:23;;;;;;;;;;;12.30;91.00;;;;;;5016227;28;19913;-81
2023/12/27 00:58:48;;;;;;;;;;;12.40;91.00;;;;;;5016297;28;19976;-80
2023/12/27 01:01:14;;;;;;;;;;;12.30;91.30;;;;;;5016435;28;19975;-81
2023/12/27 01:03:40;;;;;;;;;;;12.30;91.00;;;;;;5016426;28;19952;-82
2023/12/27 01:06:06;;;;;;;;;;;12.30;91.00;;;;;;5033692;28;19909;-80
2023/12/27 01:08:31;;;;;;;;;;;12.40;91.00;;;;;;5016154;28;20374;-81
2023/12/27 01:10:57;;;;;;;;;;;12.30;91.00;;;;;;5033892;28;19956;-80
2023/12/27 01:13:22;;;;;;;;;;;12.30;91.00;;;;;;5016200;28;19913;-81
2023/12/27 01:15:47;;;;;;;;;;;12.40;91.00;;;;;;5015794;28;19910;-79
2023/12/27 01:18:13;;;;;;;;;;;12.30;91.00;;;;;;5015801;28;19917;-81
2023/12/27 01:20:38;;;;;;;;;;;12.30;91.00;;;;;;5015366;28;19913;-81
2023/12/27 01:23:04;;;;;;;;;;;12.30;91.00;;;;;;5015491;28;20320;-81
2023/12/27 01:25:29;;;;;;;;;;;12.30;91.00;;;;;;5015608;28;20391;-81
2023/12/27 01:27:55;;;;;;;;;;;12.30;91.00;;;;;;5015281;28;20350;-81
2023/12/27 01:30:20;;;;;;;;;;;12.30;91.00;;;;;;5015744;28;19996;-81
2023/12/27 01:32:45;;;;;;;;;;;12.40;91.00;;;;;;5015710;28;19909;-81
2023/12/27 01:35:11;;;;;;;;;;;12.30;90.90;;;;;;5015782;28;20289;-80
2023/12/27 01:37:36;;;;;;;;;;;12.40;91.00;;;;;;5014318;28;20316;-81
2023/12/27 01:40:02;;;;;;;;;;;12.30;90.90;;;;;;5033427;28;20043;-81
2023/12/27 01:42:28;;;;;;;;;;;12.40;91.00;;;;;;5015599;28;20012;-81
2023/12/27 01:44:53;;;;;;;;;;;12.30;90.90;;;;;;5015284;28;19979;-81
2023/12/27 01:47:18;;;;;;;;;;;12.40;91.00;;;;;;5014855;28;19909;-80
2023/12/27 01:49:44;;;;;;;;;;;12.40;91.00;;;;;;5033195;28;19909;-80
2023/12/27 01:52:10;;;;;;;;;;;12.40;91.00;;;;;;5015495;28;19915;-81
2023/12/27 01:54:35;;;;;;;;;;;12.40;91.00;;;;;;5015572;28;19963;-81
2023/12/27 01:57:01;;;;;;;;;;;12.40;91.00;;;;;;5015310;28;19909;-80
2023/12/27 01:59:26;;;;;;;;;;;12.40;91.00;;;;;;5015457;28;19913;-80
2023/12/27 02:01:52;;;;;;;;;;;12.30;90.90;;;;;;5015428;28;19913;-81
2023/12/27 02:04:18;;;;;;;;;;;12.30;90.90;;;;;;5015253;28;19952;-81
2023/12/27 02:06:43;;;;;;;;;;;12.30;90.90;;;;;;5032895;28;19909;-80
2023/12/27 02:09:09;;;;;;;;;;;12.40;90.90;;;;;;5015229;28;19913;-82
2023/12/27 02:11:35;;;;;;;;;;;12.30;90.90;;;;;;5015120;28;20366;-80
2023/12/27 02:14:01;;;;;;;;;;;12.30;90.90;;;;;;5015238;28;20004;-81
2023/12/27 02:16:26;;;;;;;;;;;12.30;90.90;;;;;;5014648;28;19948;-81
2023/12/27 02:18:52;;;;;;;;;;;12.30;90.90;;;;;;5015086;28;19913;-81
2023/12/27 02:21:17;;;;;;;;;;;12.40;90.90;;;;;;5015228;28;19952;-81
2023/12/27 02:23:45;;;;;;;;;;;12.40;91.00;;;;;;5015075;28;20583;-80
2023/12/27 02:26:11;;;;;;;;;;;12.30;90.90;;;;;;5014983;28;19917;-80
2023/12/27 02:28:36;;;;;;;;;;;12.30;90.90;;;;;;5033003;28;19913;-80
2023/12/27 02:31:01;;;;;;;;;;;12.30;90.90;;;;;;5015135;28;19909;-81
2023/12/27 02:33:27;;;;;;;;;;;12.30;90.90;;;;;;5014981;28;19913;-80
2023/12/27 02:35:52;;;;;;;;;;;12.30;90.90;;;;;;5014988;28;20031;-80
2023/12/27 02:38:18;;;;;;;;;;;12.30;90.90;;;;;;5014729;28;19913;-81
2023/12/27 02:40:43;;;;;;;;;;;12.30;90.90;;;;;;5014917;28;19913;-80
2023/12/27 02:43:09;;;;;;;;;;;12.30;90.90;;;;;;5015204;28;20523;-81
2023/12/27 02:45:34;;;;;;;;;;;12.30;90.90;;;;;;5014972;28;20293;-81
2023/12/27 02:47:59;;;;;;;;;;;12.30;90.90;;;;;;5014484;28;20289;-81
2023/12/27 02:50:25;;;;;;;;;;;12.30;90.90;;;;;;5014859;28;19975;-80
2023/12/27 02:52:50;;;;;;;;;;;12.30;90.90;;;;;;5014793;28;20426;-81
2023/12/27 02:55:16;;;;;;;;;;;12.30;90.90;;;;;;5014751;28;19915;-81
2023/12/27 02:57:41;;;;;;;;;;;12.30;90.90;;;;;;5016961;28;19913;-81
2023/12/27 03:00:07;;;;;;;;;;;12.30;90.90;;;;;;5018551;28;19909;-80
2023/12/27 03:02:32;;;;;;;;;;;12.30;90.90;;;;;;5018625;28;19915;-80
2023/12/27 03:04:58;;;;;;;;;;;12.30;90.90;;;;;;5018633;28;19909;-80
2023/12/27 03:07:23;;;;;;;;;;;12.30;90.90;;;;;;4997149;28;19914;-81
2023/12/27 03:09:48;;;;;;;;;;;12.30;90.90;;;;;;4998323;28;20301;-80
2023/12/27 03:12:14;;;;;;;;;;;12.30;90.90;;;;;;4999976;28;19956;-81
2023/12/27 03:14:39;;;;;;;;;;;12.30;90.90;;;;;;5018483;28;19916;-80
2023/12/27 03:17:05;;;;;;;;;;;12.30;90.90;;;;;;5017878;28;19960;-81
2023/12/27 03:19:30;;;;;;;;;;;12.30;90.90;;;;;;5018182;28;20008;-79
2023/12/27 03:21:56;;;;;;;;;;;12.30;90.90;;;;;;5018301;28;20270;-80
2023/12/27 03:24:21;;;;;;;;;;;12.30;90.90;;;;;;5035842;28;19909;-80
2023/12/27 03:26:47;;;;;;;;;;;12.30;90.90;;;;;;5017955;28;19916;-81
2023/12/27 03:29:12;;;;;;;;;;;12.30;90.90;;;;;;5017945;28;19916;-81
2023/12/27 03:31:37;;;;;;;;;;;12.30;90.90;;;;;;5018031;28;19995;-80
2023/12/27 03:34:03;;;;;;;;;;;12.30;90.80;;;;;;5036004;28;19913;-80
2023/12/27 03:36:28;;;;;;;;;;;12.30;90.80;;;;;;5017989;28;20000;-81
2023/12/27 03:38:54;;;;;;;;;;;12.30;90.80;;;;;;5017818;28;19913;-81
2023/12/27 03:41:19;;;;;;;;;;;12.30;90.80;;;;;;5017933;28;19917;-80
2023/12/27 03:43:44;;;;;;;;;;;12.30;90.80;;;;;;5035569;28;19913;-80
2023/12/27 03:46:10;;;;;;;;;;;12.30;90.80;;;;;;5017896;28;19909;-81
2023/12/27 03:48:35;;;;;;;;;;;12.30;90.90;;;;;;5017498;28;19913;-81
2023/12/27 03:51:02;;;;;;;;;;;12.30;90.80;;;;;;5017783;28;20454;-81
2023/12/27 03:53:27;;;;;;;;;;;12.30;90.80;;;;;;5017615;28;20668;-81
2023/12/27 03:55:53;;;;;;;;;;;12.30;90.80;;;;;;5017491;28;19952;-81
2023/12/27 03:58:18;;;;;;;;;;;12.30;90.80;;;;;;5017252;28;20008;-81
2023/12/27 04:00:43;;;;;;;;;;;12.30;90.80;;;;;;5017527;28;19971;-80
2023/12/27 04:03:09;;;;;;;;;;;12.30;90.80;;;;;;5035430;28;20008;-80
2023/12/27 04:05:34;;;;;;;;;;;12.30;91.00;;;;;;5017560;28;20000;-80
2023/12/27 04:08:00;;;;;;;;;;;12.30;90.80;;;;;;5016799;28;20254;-80
2023/12/27 04:10:25;;;;;;;;;;;12.30;90.80;;;;;;5017326;28;19919;-81
2023/12/27 04:12:51;;;;;;;;;;;12.30;90.80;;;;;;5017413;28;20397;-80
2023/12/27 04:15:16;;;;;;;;;;;12.30;90.80;;;;;;5017316;28;19917;-80
2023/12/27 04:17:42;;;;;;;;;;;12.30;90.80;;;;;;5016676;28;19960;-80
2023/12/27 04:20:08;;;;;;;;;;;12.30;90.70;;;;;;5034869;28;19917;-80
2023/12/27 04:22:33;;;;;;;;;;;12.30;90.70;;;;;;5017157;28;19909;-80
2023/12/27 04:24:58;;;;;;;;;;;12.30;90.70;;;;;;5017416;28;19913;-80
2023/12/27 04:27:24;;;;;;;;;;;12.30;90.80;;;;;;5016519;28;19910;-80
2023/12/27 04:29:49;;;;;;;;;;;12.30;90.80;;;;;;5017124;28;19913;-80
2023/12/27 04:32:14;;;;;;;;;;;12.30;90.80;;;;;;5017186;28;20357;-81
2023/12/27 04:34:40;;;;;;;;;;;12.30;90.80;;;;;;5016975;28;19955;-80
2023/12/27 04:37:05;;;;;;;;;;;12.30;90.80;;;;;;5016645;28;19913;-80
2023/12/27 04:39:31;;;;;;;;;;;12.30;91.00;;;;;;5016734;28;19913;-80
2023/12/27 04:41:56;;;;;;;;;;;12.30;90.80;;;;;;5016689;28;19910;-80
2023/12/27 04:44:22;;;;;;;;;;;12.30;90.80;;;;;;5016545;28;19910;-81
2023/12/27 04:46:47;;;;;;;;;;;12.30;90.80;;;;;;5016496;28;19920;-81
2023/12/27 04:49:13;;;;;;;;;;;12.30;90.80;;;;;;5016505;28;19910;-80
2023/12/27 04:51:39;;;;;;;;;;;12.30;90.70;;;;;;5016604;28;19910;-80
2023/12/27 04:54:04;;;;;;;;;;;12.30;90.70;;;;;;5016592;28;19909;-81
2023/12/27 04:56:30;;;;;;;;;;;12.30;90.70;;;;;;5016527;28;20373;-81
2023/12/27 04:58:55;;;;;;;;;;;12.30;90.70;;;;;;5016548;28;19968;-81
2023/12/27 05:01:20;;;;;;;;;;;12.30;90.70;;;;;;5016662;28;20015;-80
2023/12/27 05:03:46;;;;;;;;;;;12.30;90.70;;;;;;5016478;28;19916;-81
2023/12/27 05:06:12;;;;;;;;;;;12.30;90.70;;;;;;5012104;28;20413;-80
2023/12/27 05:08:38;;;;;;;;;;;12.30;90.70;;;;;;4991473;28;19910;-81
2023/12/27 05:11:09;;;;;;;;;;;12.30;90.70;;;;;;4977250;28;19910;-80
2023/12/27 05:13:35;;;;;;;;;;;12.30;90.70;;;;;;4977035;28;19910;-81
2023/12/27 05:16:00;;;;;;;;;;;12.20;90.70;;;;;;4979095;28;19924;-80
2023/12/27 05:18:26;;;;;;;;;;;12.30;90.70;;;;;;4996054;28;19923;-79
2023/12/27 05:20:51;;;;;;;;;;;12.30;90.70;;;;;;5015473;28;20311;-81
2023/12/27 05:23:16;;;;;;;;;;;12.30;90.70;;;;;;5016126;28;19909;-80
2023/12/27 05:25:42;;;;;;;;;;;12.30;90.70;;;;;;5015767;28;19918;-79
2023/12/27 05:28:07;;;;;;;;;;;12.30;90.70;;;;;;5015940;28;19909;-81
2023/12/27 05:30:33;;;;;;;;;;;12.30;90.70;;;;;;5016132;28;20709;-81
2023/12/27 05:32:58;;;;;;;;;;;12.30;90.70;;;;;;5015946;28;19944;-81
2023/12/27 05:35:23;;;;;;;;;;;12.30;90.70;;;;;;5015975;28;20004;-80
2023/12/27 05:37:49;;;;;;;;;;;12.30;90.70;;;;;;5015507;28;20377;-81
2023/12/27 05:40:14;;;;;;;;;;;12.20;90.70;;;;;;5015937;28;19916;-81
2023/12/27 05:42:40;;;;;;;;;;;12.30;90.70;;;;;;5015818;28;19916;-81
2023/12/27 05:45:05;;;;;;;;;;;12.30;90.70;;;;;;5015840;28;19916;-80
2023/12/27 05:47:31;;;;;;;;;;;12.30;90.70;;;;;;5015284;28;19916;-81
2023/12/27 05:49:56;;;;;;;;;;;12.30;90.70;;;;;;5015547;28;19913;-80
2023/12/27 05:52:21;;;;;;;;;;;12.20;90.70;;;;;;4995277;28;19917;-80
2023/12/27 05:54:47;;;;;;;;;;;12.30;90.70;;;;;;4996009;28;20000;-81
2023/12/27 05:57:12;;;;;;;;;;;12.30;90.70;;;;;;4995817;28;20321;-81
2023/12/27 05:59:38;;;;;;;;;;;12.30;90.70;;;;;;4995680;28;19917;-80
2023/12/27 06:02:03;;;;;;;;;;;12.30;90.70;;;;;;4995726;28;19909;-81
2023/12/27 06:04:29;;;;;;;;;;;12.30;90.70;;;;;;4995859;28;19913;-80
2023/12/27 06:06:54;;;;;;;;;;;12.20;90.70;;;;;;4995505;28;19909;-80
2023/12/27 06:09:20;;;;;;;;;;;12.30;90.80;;;;;;4995564;28;19921;-81
2023/12/27 06:11:46;;;;;;;;;;;12.30;90.70;;;;;;4995846;28;19917;-80
2023/12/27 06:14:12;;;;;;;;;;;12.30;90.80;;;;;;5003169;28;19916;-81
2023/12/27 06:16:37;;;;;;;;;;;12.20;90.70;;;;;;4995850;28;19909;-80
2023/12/27 06:19:03;;;;;;;;;;;12.30;90.70;;;;;;4993971;28;19917;-81
2023/12/27 06:21:29;;;;;;;;;;;12.20;90.70;;;;;;4997614;28;19918;-80
2023/12/27 06:23:55;;;;;;;;;;;12.20;90.70;;;;;;4975140;28;19916;-80
2023/12/27 06:26:20;;;;;;;;;;;12.20;90.70;;;;;;4973550;28;20016;-80
2023/12/27 06:28:45;;;;;;;;;;;12.20;90.70;;;;;;4974134;28;19909;-80
2023/12/27 06:31:11;;;;;;;;;;;12.20;90.70;;;;;;4976230;28;19990;-79
2023/12/27 06:33:36;;;;;;;;;;;12.20;90.70;;;;;;4978584;28;19941;-81
2023/12/27 06:36:04;;;;;;;;;;;12.20;90.70;;;;;;4996669;28;20366;-79
2023/12/27 06:38:29;;;;;;;;;;;12.20;90.70;;;;;;5010389;28;19921;-80
2023/12/27 06:40:55;;;;;;;;;;;12.20;90.70;;;;;;5035192;28;19920;-79
2023/12/27 06:43:21;;;;;;;;;;;12.20;90.70;;;;;;5018201;28;20551;-80
2023/12/27 06:45:46;;;;;;;;;;;12.20;90.70;;;;;;5016654;28;20366;-80
2023/12/27 06:48:13;;;;;;;;;;;12.20;90.70;;;;;;5016983;28;20012;-80
2023/12/27 06:50:38;;;;;;;;;;;12.20;90.70;;;;;;5017260;28;19956;-80
2023/12/27 06:53:04;;;;;;;;;;;12.20;90.70;;;;;;5017153;28;20587;-80
2023/12/27 06:55:29;;;;;;;;;;;12.20;90.70;;;;;;5034499;28;20300;-81
2023/12/27 06:57:55;;;;;;;;;;;12.20;90.70;;;;;;5033829;28;19917;-80
2023/12/27 07:00:20;;;;;;;;;;;12.20;90.70;;;;;;5016630;28;19913;-80
2023/12/27 07:02:46;;;;;;;;;;;12.20;90.70;;;;;;5017351;28;20258;-80
2023/12/27 07:05:12;;;;;;;;;;;12.20;90.70;;;;;;5016978;28;19913;-79
2023/12/27 07:07:37;;;;;;;;;;;12.20;90.70;;;;;;5016211;28;19924;-80
2023/12/27 07:10:04;;;;;;;;;;;12.20;90.70;;;;;;5003433;28;19914;-80
2023/12/27 07:12:30;;;;;;;;;;;12.20;90.70;;;;;;4994410;28;19914;-81
2023/12/27 07:14:55;;;;;;;;;;;12.20;90.70;;;;;;4993256;28;19984;-80
2023/12/27 07:17:22;;;;;;;;;;;12.20;90.70;;;;;;4994164;28;20274;-79
2023/12/27 07:19:47;;;;;;;;;;;12.20;90.70;;;;;;4996837;28;19913;-80
2023/12/27 07:22:13;;;;;;;;;;;12.20;90.70;;;;;;4996585;28;20273;-80
2023/12/27 07:24:39;;;;;;;;;;;12.30;90.60;;;;;;4996889;28;19913;-79
2023/12/27 07:27:04;;;;;;;;;;;12.10;90.80;;;;;;5013947;28;19910;-80
2023/12/27 07:29:30;;;;;;;;;;;12.20;90.60;;;;;;4996220;28;20361;-80
2023/12/27 07:31:56;;;;;;;;;;;12.20;90.60;;;;;;4997953;28;20432;-79
2023/12/27 07:34:21;;;;;;;;;;;12.20;90.60;;;;;;4997528;28;20685;-80
2023/12/27 07:36:48;;;;;;;;;;;12.20;90.60;;;;;;4997883;28;19921;-81
2023/12/27 07:39:15;;;;;;;;;;;12.20;90.60;;;;;;5015321;28;19913;-80
2023/12/27 07:41:42;;;;;;;;;;;12.20;90.60;;;;;;4997554;28;19917;-79
2023/12/27 07:44:08;;;;;;;;;;;12.20;90.60;;;;;;4987879;28;19964;-78
2023/12/27 07:46:33;;;;;;;;;;;12.20;90.60;;;;;;4975915;28;20597;-80
2023/12/27 07:48:59;;;;;;;;;;;12.20;90.60;;;;;;4991178;28;19920;-78
2023/12/27 07:51:24;;;;;;;;;;;12.20;90.60;;;;;;4975388;28;19913;-79
2023/12/27 07:53:50;;;;;;;;;;;12.20;90.60;;;;;;4992138;28;19945;-78
2023/12/27 07:56:15;;;;;;;;;;;12.20;90.60;;;;;;4992186;28;19925;-79
2023/12/27 07:58:41;;;;;;;;;;;12.20;90.60;;;;;;4993618;28;19918;-79
2023/12/27 08:01:07;;;;;;;;;;;12.20;90.60;;;;;;4991746;28;19918;-79
2023/12/27 08:03:32;;;;;;;;;;;12.20;90.50;;;;;;4991211;28;19964;-80
2023/12/27 08:05:58;;;;;;;;;;;12.20;90.60;;;;;;4991563;28;19914;-80
2023/12/27 08:08:25;;;;;;;;;;;12.20;90.50;;;;;;4991720;28;19914;-77
2023/12/27 08:10:50;;;;;;;;;;;12.20;90.60;;;;;;4992689;28;19935;-80
2023/12/27 08:13:15;;;;;;;;;;;12.20;90.60;;;;;;4976199;28;20046;-78
2023/12/27 08:15:41;;;;;;;;;;;12.20;90.50;;;;;;4975950;28;19910;-80
2023/12/27 08:18:06;;;;;;;;;;;12.20;90.50;;;;;;4991342;28;19921;-78
2023/12/27 08:20:32;;;;;;;;;;;12.20;90.50;;;;;;4992100;28;19956;-80
2023/12/27 08:23:00;;;;;;;;;;;12.20;90.50;;;;;;4976381;28;19988;-79
2023/12/27 08:25:25;;;;;;;;;;;12.20;90.60;;;;;;4991867;28;19914;-80
2023/12/27 08:27:51;;;;;;;;;;;12.20;90.60;;;;;;4976081;28;19968;-79
2023/12/27 08:30:16;;;;;;;;;;;12.20;90.60;;;;;;4975984;28;19984;-80
2023/12/27 08:32:42;;;;;;;;;;;12.20;90.60;;;;;;4992117;28;20009;-79
2023/12/27 08:35:07;;;;;;;;;;;12.20;90.60;;;;;;4991963;28;19921;-79
2023/12/27 08:37:33;;;;;;;;;;;12.20;90.60;;;;;;4991671;28;19921;-79
2023/12/27 08:39:58;;;;;;;;;;;12.20;90.60;;;;;;4992056;28;20391;-80
2023/12/27 08:42:24;;;;;;;;;;;12.20;90.60;;;;;;4975928;28;19917;-79
2023/12/27 08:44:49;;;;;;;;;;;12.20;90.60;;;;;;4975848;28;19973;-80
2023/12/27 08:47:14;;;;;;;;;;;12.20;90.60;;;;;;4974683;28;20012;-80
2023/12/27 08:49:40;;;;;;;;;;;12.20;90.60;;;;;;4974521;28;19918;-79
2023/12/27 08:52:06;;;;;;;;;;;12.10;90.50;;;;;;4991400;28;19914;-79
2023/12/27 08:54:31;;;;;;;;;;;12.20;90.60;;;;;;4990970;28;20247;-79
2023/12/27 08:56:57;;;;;;;;;;;12.20;90.60;;;;;;4974030;28;20457;-78
2023/12/27 08:59:22;;;;;;;;;;;12.20;90.60;;;;;;4990963;28;19921;-80
2023/12/27 09:01:48;;;;;;;;;;;12.20;90.50;;;;;;4991452;28;19914;-80
2023/12/27 09:04:13;;;;;;;;;;;12.30;90.60;;;;;;4992499;28;19910;-80
2023/12/27 09:06:43;;;;;;;;;;;12.20;90.50;;;;;;4976047;28;19920;-79
2023/12/27 09:09:26;;;;;;;;;;;12.10;90.50;;;;;;4978958;28;19916;-79
2023/12/27 09:11:54;;;;;;;;;;;12.20;90.50;;;;;;4992369;28;19997;-80
2023/12/27 09:14:26;;;;;;;;;;;12.40;90.60;;;;;;4974727;28;20440;-78
2023/12/27 09:16:51;;;;;;;;;;;12.20;90.50;;;;;;4991817;28;19914;-80
2023/12/27 09:19:17;;;;;;;;;;;12.20;90.50;;;;;;4975749;28;20032;-80
2023/12/27 09:21:43;;;;;;;;;;;13.50;90.90;;;;;;4993587;28;20374;-80
2023/12/27 09:24:09;;;;;;;;;;;12.20;90.50;;;;;;4976492;28;20013;-80
2023/12/27 09:26:49;;;;;;;;;;;12.40;90.50;;;;;;4993349;28;19993;-80
2023/12/27 09:29:15;;;;;;;;;;;12.20;90.50;;;;;;4991872;28;19921;-80
2023/12/27 09:31:48;;;;;;;;;;;13.70;90.90;;;;;;4993538;28;19910;-79
2023/12/27 09:34:16;;;;;;;;;;;12.10;90.50;;;;;;4993102;28;19921;-80
2023/12/27 09:36:49;;;;;;;;;;;12.20;90.50;;;;;;4991850;28;19917;-80
2023/12/27 09:42:25;;;;;;;;;;;12.20;90.50;;;;;;4969006;28;20405;-79
2023/12/27 09:44:52;;;;;;;;;;;12.40;90.50;;;;;;4976481;28;20290;-79
2023/12/27 09:47:18;;;;;;;;;;;12.20;90.40;;;;;;4992685;28;19969;-78
2023/12/27 09:49:44;;;;;;;;;;;12.10;90.00;;;;;;4992411;28;19917;-80
2023/12/27 09:52:09;;;;;;;;;;;12.10;89.90;;;;;;4993025;28;20294;-80
2023/12/27 09:54:35;;;;;;;;;;;12.00;89.60;;;;;;4992956;28;19917;-80
2023/12/27 09:57:02;;;;;;;;;;;12.00;89.50;;;;;;4992622;28;19917;-80
2023/12/27 09:59:28;;;;;;;;;;;12.00;89.50;;;;;;4976636;28;19921;-81
2023/12/27 10:01:59;;;;;;;;;;;11.90;89.30;;;;;;4976612;28;19917;-80
2023/12/27 10:04:44;;;;;;;;;;;11.90;89.30;;;;;;4992907;28;19910;-80
2023/12/27 10:07:11;;;;;;;;;;;11.90;89.30;;;;;;4992368;28;20358;-80
2023/12/27 10:09:37;;;;;;;;;;;11.90;89.20;;;;;;4992985;28;19961;-80
2023/12/27 10:12:03;;;;;;;;;;;11.90;89.20;;;;;;4994373;28;19917;-80
2023/12/27 10:14:30;;;;;;;;;;;11.90;89.70;;;;;;4992767;28;19910;-80
2023/12/27 10:16:56;;;;;;;;;;;11.90;89.10;;;;;;4976424;28;19914;-79
2023/12/27 10:19:40;;;;;;;;;;;12.00;89.20;;;;;;4992642;28;19960;-80
2023/12/27 10:22:06;;;;;;;;;;;11.90;89.10;;;;;;4976650;28;20286;-80
2023/12/27 10:24:32;;;;;;;;;;;11.90;89.20;;;;;;4992839;28;19917;-81
2023/12/27 10:26:57;;;;;;;;;;;11.90;89.10;;;;;;4976396;28;19960;-80
2023/12/27 10:29:23;;;;;;;;;;;11.90;89.20;;;;;;4992879;28;19913;-80
2023/12/27 10:31:49;;;;;;;;;;;11.90;89.10;;;;;;4992578;28;19996;-80
2023/12/27 10:34:14;;;;;;;;;;;11.90;89.10;;;;;;4976459;28;19910;-80
2023/12/27 10:36:42;;;;;;;;;;;11.90;89.00;;;;;;4976249;28;19964;-80
2023/12/27 10:39:11;;;;;;;;;;;11.90;89.00;;;;;;4976355;28;19960;-80
2023/12/27 10:41:39;;;;;;;;;;;11.90;89.00;;;;;;4976263;28;19939;-80
2023/12/27 10:44:05;;;;;;;;;;;11.90;89.10;;;;;;4976416;28;19940;-80
2023/12/27 10:46:31;;;;;;;;;;;11.90;89.10;;;;;;4976259;28;19917;-81
2023/12/27 10:49:00;;;;;;;;;;;11.90;89.60;;;;;;4976183;28;19910;-80
2023/12/27 10:51:28;;;;;;;;;;;11.90;89.10;;;;;;4976501;28;19917;-80
2023/12/27 10:53:57;;;;;;;;;;;11.90;89.10;;;;;;4976265;28;19910;-80
2023/12/27 10:56:23;;;;;;;;;;;11.90;89.00;;;;;;4994138;28;19917;-81
2023/12/27 10:58:49;;;;;;;;;;;11.90;89.10;;;;;;4977763;28;19914;-81
2023/12/27 11:01:15;;;;;;;;;;;12.00;88.90;;;;;;4976370;28;19910;-79
2023/12/27 11:03:41;;;;;;;;;;;12.00;88.90;;;;;;4985597;28;19956;-80
2023/12/27 11:06:06;;;;;;;;;;;12.00;89.00;;;;;;4976008;28;20005;-80
2023/12/27 11:08:34;;;;;;;;;;;12.10;89.10;;;;;;4976216;28;19949;-80
2023/12/27 11:11:00;;;;;;;;;;;12.00;89.00;;;;;;4976438;28;19909;-80
2023/12/27 11:13:27;;;;;;;;;;;12.10;89.00;;;;;;4975972;28;19921;-80
2023/12/27 11:15:55;;;;;;;;;;;12.10;88.90;;;;;;4975874;28;19959;-80
2023/12/27 11:18:21;;;;;;;;;;;12.00;88.90;;;;;;4978599;28;19918;-81
2023/12/27 11:20:49;;;;;;;;;;;12.10;89.10;;;;;;4979931;28;19910;-80
2023/12/27 11:23:15;;;;;;;;;;;12.10;89.10;;;;;;4979491;28;19916;-80
2023/12/27 11:25:40;;;;;;;;;;;12.10;89.10;;;;;;4979735;28;20008;-80
2023/12/27 11:28:07;;;;;;;;;;;12.10;89.10;;;;;;4979426;28;20007;-81
2023/12/27 11:30:33;;;;;;;;;;;12.10;89.20;;;;;;4980498;28;20293;-81
2023/12/27 11:32:58;;;;;;;;;;;12.10;89.20;;;;;;4980161;28;19910;-81
2023/12/27 11:35:24;;;;;;;;;;;12.10;89.20;;;;;;4979862;28;20367;-81
2023/12/27 11:37:50;;;;;;;;;;;12.10;89.30;;;;;;4979155;28;19913;-81
2023/12/27 11:40:32;;;;;;;;;;;12.10;89.20;;;;;;4979433;28;19910;-81
2023/12/27 11:42:57;;;;;;;;;;;12.20;89.30;;;;;;4979492;28;19997;-81
2023/12/27 11:45:24;;;;;;;;;;;12.10;89.30;;;;;;4996832;28;20401;-80
2023/12/27 11:47:49;;;;;;;;;;;12.10;89.30;;;;;;4984073;28;19910;-81
2023/12/27 11:50:15;;;;;;;;;;;12.10;89.30;;;;;;4984793;28;19917;-81
2023/12/27 11:52:41;;;;;;;;;;;12.20;89.40;;;;;;4983471;28;19917;-81
2023/12/27 11:55:14;;;;;;;;;;;12.10;89.80;;;;;;4983105;28;19910;-81
2023/12/27 11:57:39;;;;;;;;;;;12.10;89.40;;;;;;4993431;28;19913;-81
2023/12/27 12:00:05;;;;;;;;;;;12.10;89.40;;;;;;4995337;28;19940;-81
2023/12/27 12:02:32;;;;;;;;;;;12.10;89.50;;;;;;4979635;28;19918;-81
2023/12/27 12:05:03;;;;;;;;;;;12.20;89.60;;;;;;4979226;28;19917;-80
2023/12/27 12:07:52;;;;;;;;;;;12.10;89.50;;;;;;4978994;28;19910;-81
2023/12/27 12:10:22;;;;;;;;;;;12.10;89.40;;;;;;4979596;28;19909;-81
2023/12/27 12:12:48;;;;;;;;;;;12.10;89.60;;;;;;4979250;28;19910;-81
2023/12/27 12:15:13;;;;;;;;;;;12.10;89.60;;;;;;4979857;28;20012;-81
2023/12/27 12:17:39;;;;;;;;;;;12.10;89.60;;;;;;4979049;28;19991;-81
2023/12/27 12:20:05;;;;;;;;;;;12.10;89.60;;;;;;4979049;28;19914;-81
2023/12/27 12:22:32;;;;;;;;;;;12.20;89.60;;;;;;4978996;28;20409;-81
2023/12/27 12:25:10;;;;;;;;;;;12.10;89.50;;;;;;4986619;28;19910;-81
2023/12/27 12:27:38;;;;;;;;;;;12.10;89.60;;;;;;4979037;28;20008;-81
2023/12/27 12:30:07;;;;;;;;;;;12.10;89.60;;;;;;4978530;28;19917;-81
2023/12/27 12:32:32;;;;;;;;;;;12.10;89.70;;;;;;4978714;28;19910;-82
2023/12/27 12:34:57;;;;;;;;;;;12.10;89.60;;;;;;4979189;28;19916;-80
2023/12/27 12:37:23;;;;;;;;;;;12.10;89.60;;;;;;4978414;28;19910;-80
2023/12/27 12:39:49;;;;;;;;;;;12.10;89.60;;;;;;4978860;28;19920;-81
2023/12/27 12:42:14;;;;;;;;;;;12.10;89.60;;;;;;4978574;28;19910;-81
2023/12/27 12:44:40;;;;;;;;;;;12.10;89.70;;;;;;4996063;28;19914;-81
2023/12/27 12:47:06;;;;;;;;;;;12.20;89.70;;;;;;4978457;28;20303;-80
2023/12/27 12:49:31;;;;;;;;;;;12.10;89.80;;;;;;4978309;28;20382;-81
2023/12/27 12:52:03;;;;;;;;;;;12.10;89.70;;;;;;4978163;28;19910;-81
2023/12/27 12:54:29;;;;;;;;;;;12.10;89.70;;;;;;4978252;28;20378;-81
2023/12/27 12:56:57;;;;;;;;;;;12.10;89.80;;;;;;4978491;28;20008;-81
2023/12/27 12:59:22;;;;;;;;;;;12.10;89.80;;;;;;4978214;28;19913;-81
2023/12/27 13:01:48;;;;;;;;;;;12.10;89.80;;;;;;4979579;28;19910;-81
2023/12/27 13:04:13;;;;;;;;;;;12.10;89.80;;;;;;4979010;28;19910;-81
2023/12/27 13:06:39;;;;;;;;;;;12.10;89.80;;;;;;4979391;28;20287;-81
2023/12/27 13:09:04;;;;;;;;;;;12.10;89.90;;;;;;4978774;28;19910;-81
2023/12/27 13:11:32;;;;;;;;;;;12.10;89.90;;;;;;4997129;28;19914;-80
2023/12/27 13:13:58;;;;;;;;;;;12.10;89.90;;;;;;5015707;28;19918;-78
2023/12/27 13:16:24;;;;;;;;;;;12.10;90.00;;;;;;4997455;28;19991;-81
2023/12/27 13:18:50;;;;;;;;;;;12.10;89.90;;;;;;4999279;28;20337;-81
2023/12/27 13:21:15;;;;;;;;;;;12.10;89.90;;;;;;4997096;28;20000;-81
2023/12/27 13:23:40;;;;;;;;;;;12.10;89.90;;;;;;4997229;28;19994;-80
2023/12/27 13:26:06;;;;;;;;;;;12.10;89.90;;;;;;4999984;28;20401;-81
2023/12/27 13:28:32;;;;;;;;;;;12.10;90.00;;;;;;4998294;28;20370;-81
2023/12/27 13:30:57;;;;;;;;;;;12.10;90.00;;;;;;4998767;28;19909;-80
2023/12/27 13:33:24;;;;;;;;;;;12.10;90.00;;;;;;4996901;28;20004;-81
2023/12/27 13:35:50;;;;;;;;;;;12.10;89.90;;;;;;4996529;28;19920;-80
2023/12/27 13:38:15;;;;;;;;;;;12.10;89.80;;;;;;4995794;28;20007;-80
2023/12/27 13:40:41;;;;;;;;;;;12.10;90.00;;;;;;4995819;28;20441;-79
2023/12/27 13:43:07;;;;;;;;;;;12.10;90.00;;;;;;4996400;28;20366;-80
2023/12/27 13:45:32;;;;;;;;;;;12.10;90.00;;;;;;4996516;28;19917;-80
2023/12/27 13:47:58;;;;;;;;;;;12.10;90.00;;;;;;4996211;28;19917;-80
2023/12/27 13:50:23;;;;;;;;;;;12.10;90.00;;;;;;4996412;28;20359;-81
2023/12/27 13:52:49;;;;;;;;;;;12.10;90.00;;;;;;4996217;28;19910;-81
2023/12/27 13:55:21;;;;;;;;;;;12.10;89.90;;;;;;4997158;28;19968;-80
2023/12/27 13:57:47;;;;;;;;;;;12.10;90.00;;;;;;4996915;28;20298;-80
2023/12/27 14:00:13;;;;;;;;;;;12.10;89.90;;;;;;5013944;28;19909;-81
2023/12/27 14:02:38;;;;;;;;;;;12.10;90.00;;;;;;5014822;28;19996;-80
2023/12/27 14:05:04;;;;;;;;;;;12.10;90.00;;;;;;4994696;28;20019;-80
2023/12/27 14:07:29;;;;;;;;;;;12.10;90.00;;;;;;4996301;28;19914;-80
2023/12/27 14:09:57;;;;;;;;;;;12.20;90.00;;;;;;5007062;28;19914;-82
2023/12/27 14:12:27;;;;;;;;;;;12.10;90.00;;;;;;5004956;28;19964;-81